Terminal Aerodrome Forecast
Issued by NWS

Home | Current Version | Previous Version | Text Only | Print | Product List | Glossary On
Versions: 1 2 3 4 5 6 7 8 9 10 11 12 13 14 15 16 17 18
265
FTUS46 KPDT 212004 AAB
TAFYKM
TAF AMD
KYKM 212004Z 2120/2218 17009KT P6SM BKN060
     FM212300 21011KT P6SM VCSH OVC040
     FM220200 24005KT P6SM SCT040 BKN100
     FM221200 VRB04KT P6SM BKN200=

USA.gov is the U.S. government's official web portal to all federal, state and local government web resources and services.